Time;durP1;ratioP1;P1;durP2;ratioP2;P2;SDS_P1;SDS_P2;PMS_P1;PMS_P2;Temp;Humidity;BMP_temperature;BMP_pressure;BME280_temperature;BME280_humidity;BME280_pressure;Samples;Min_cycle;Max_cycle;Signal;HPM_P1;HPM_P2
2021/12/29 05:02:10;;;;;;;6.87;2.00;;;7.80;99.70;;;;;;4992264;28;20736;-65
2021/12/29 05:04:45;;;;;;;4.07;1.80;;;7.80;99.70;;;;;;4992369;28;20580;-66
2021/12/29 05:09:57;;;;;;;4.30;1.97;;;7.90;99.70;;;;;;4992181;28;20561;-66
2021/12/29 05:12:23;;;;;;;5.70;1.90;;;7.90;99.70;;;;;;4993309;28;20446;-68
2021/12/29 05:14:50;;;;;;;4.37;1.70;;;7.90;99.70;;;;;;4992594;28;20453;-68
2021/12/29 05:17:18;;;;;;;4.67;1.90;;;7.90;99.70;;;;;;4991739;28;20477;-68
2021/12/29 05:19:45;;;;;;;4.73;1.60;;;7.90;99.70;;;;;;4991769;28;20458;-68
2021/12/29 05:22:11;;;;;;;4.87;1.50;;;7.90;99.70;;;;;;4992751;28;20442;-68
2021/12/29 05:24:38;;;;;;;2.67;1.40;;;7.90;99.70;;;;;;4992210;28;20490;-68
2021/12/29 05:27:05;;;;;;;6.43;1.60;;;7.90;99.70;;;;;;4992433;28;20537;-68
2021/12/29 05:29:32;;;;;;;3.10;1.50;;;7.90;99.70;;;;;;4991775;28;20442;-68
2021/12/29 05:31:59;;;;;;;5.47;2.00;;;7.90;99.70;;;;;;4992274;28;20624;-67
2021/12/29 05:34:27;;;;;;;4.73;1.53;;;8.00;99.70;;;;;;4992096;28;20915;-68
2021/12/29 05:36:54;;;;;;;3.10;1.53;;;7.90;99.70;;;;;;4992316;28;20865;-68
2021/12/29 05:39:21;;;;;;;6.43;1.80;;;7.90;99.70;;;;;;4991634;28;20443;-68
2021/12/29 05:41:47;;;;;;;3.57;1.50;;;8.00;99.70;;;;;;4991737;28;20454;-67
2021/12/29 05:44:14;;;;;;;4.33;1.87;;;8.00;99.70;;;;;;4991803;28;20541;-68
2021/12/29 05:46:41;;;;;;;5.80;1.60;;;8.00;99.70;;;;;;4992010;28;20879;-68
2021/12/29 05:49:07;;;;;;;4.67;1.57;;;8.00;99.70;;;;;;4991470;28;20446;-68
2021/12/29 05:51:35;;;;;;;4.63;1.97;;;7.80;99.70;;;;;;4992176;28;20442;-68
2021/12/29 05:54:02;;;;;;;4.30;1.90;;;7.80;99.70;;;;;;4991853;28;20478;-68
2021/12/29 05:56:29;;;;;;;7.07;2.90;;;7.80;99.70;;;;;;4991852;28;20509;-68
2021/12/29 05:58:59;;;;;;;4.63;2.30;;;7.80;99.70;;;;;;4990811;28;21006;-67
2021/12/29 06:01:26;;;;;;;5.83;2.60;;;7.90;99.70;;;;;;4991781;28;20458;-68
2021/12/29 06:03:53;;;;;;;8.00;3.37;;;7.90;99.70;;;;;;4991609;28;20874;-68
2021/12/29 06:06:19;;;;;;;8.03;3.63;;;7.90;99.70;;;;;;4991815;28;20450;-68
2021/12/29 06:08:48;;;;;;;7.10;3.20;;;7.80;99.70;;;;;;4991164;28;20450;-68
2021/12/29 06:11:15;;;;;;;6.20;2.40;;;7.80;99.70;;;;;;4991763;28;20446;-68
2021/12/29 06:13:41;;;;;;;3.77;1.70;;;7.80;99.70;;;;;;4991667;28;20462;-68
2021/12/29 06:16:08;;;;;;;5.20;1.60;;;7.80;99.70;;;;;;4992058;28;20454;-68
2021/12/29 06:18:35;;;;;;;3.90;1.50;;;7.90;99.70;;;;;;4991054;28;20458;-67
2021/12/29 06:21:01;;;;;;;3.03;1.50;;;7.80;99.70;;;;;;4991728;28;20453;-68
2021/12/29 06:23:28;;;;;;;4.57;1.50;;;7.80;99.70;;;;;;4991611;28;20490;-68
2021/12/29 06:25:56;;;;;;;3.90;1.70;;;7.90;99.70;;;;;;4991495;28;20457;-68
2021/12/29 06:28:23;;;;;;;5.53;1.53;;;7.90;99.70;;;;;;4993500;28;20454;-67
2021/12/29 06:30:49;;;;;;;4.17;1.70;;;7.90;99.70;;;;;;4995561;28;20963;-68
2021/12/29 06:33:16;;;;;;;6.03;1.70;;;7.90;99.70;;;;;;4995493;28;20469;-68
2021/12/29 06:35:43;;;;;;;6.60;1.50;;;7.90;99.70;;;;;;4995563;28;20449;-68
2021/12/29 06:38:10;;;;;;;3.70;1.57;;;7.90;99.70;;;;;;4994860;28;20792;-67
2021/12/29 06:40:36;;;;;;;6.50;1.60;;;7.90;99.70;;;;;;4995527;28;20479;-68
2021/12/29 06:43:04;;;;;;;5.43;1.90;;;7.90;99.70;;;;;;4995433;28;20501;-68
2021/12/29 06:45:31;;;;;;;4.53;1.80;;;7.80;99.70;;;;;;4995240;28;20467;-68
2021/12/29 06:47:58;;;;;;;5.83;1.87;;;7.80;99.70;;;;;;4994850;28;20450;-67
2021/12/29 06:50:25;;;;;;;4.10;1.70;;;7.90;99.70;;;;;;4995316;28;20449;-68
2021/12/29 06:52:51;;;;;;;8.47;1.73;;;7.80;99.70;;;;;;4995095;28;20943;-68
2021/12/29 06:55:18;;;;;;;5.67;1.83;;;7.80;99.70;;;;;;4995081;28;20455;-68
2021/12/29 06:57:45;;;;;;;4.33;1.70;;;7.90;99.70;;;;;;4994082;28;20511;-67
2021/12/29 07:00:14;;;;;;;4.67;1.50;;;7.90;99.70;;;;;;4995262;28;20441;-68
2021/12/29 07:02:41;;;;;;;3.60;1.50;;;7.80;99.70;;;;;;4995205;28;20473;-68
2021/12/29 07:05:08;;;;;;;5.03;1.77;;;7.90;99.70;;;;;;4995003;28;20482;-68
2021/12/29 07:07:35;;;;;;;3.60;1.43;;;8.00;99.70;;;;;;4994622;28;20438;-67
2021/12/29 07:10:03;;;;;;;4.37;1.50;;;7.90;99.70;;;;;;4994598;28;20457;-68
2021/12/29 07:12:30;;;;;;;4.53;1.63;;;7.90;99.70;;;;;;4994795;28;20458;-68
2021/12/29 07:14:57;;;;;;;5.53;1.60;;;7.90;99.70;;;;;;4994837;28;20443;-68
2021/12/29 07:17:25;;;;;;;5.07;1.50;;;7.90;99.70;;;;;;4994895;28;20446;-67
2021/12/29 07:19:52;;;;;;;5.70;1.70;;;7.80;99.70;;;;;;4993733;28;20457;-67
2021/12/29 07:22:20;;;;;;;5.30;1.63;;;7.80;99.70;;;;;;4994812;28;20545;-68
2021/12/29 07:24:46;;;;;;;4.93;1.70;;;7.90;99.70;;;;;;4994545;28;20521;-68
2021/12/29 07:27:13;;;;;;;4.10;1.50;;;7.90;99.70;;;;;;4994701;28;20485;-68
2021/12/29 07:29:40;;;;;;;4.73;1.60;;;7.90;99.70;;;;;;4993992;28;20462;-68
2021/12/29 07:32:07;;;;;;;3.53;1.50;;;7.90;99.70;;;;;;4994373;28;20450;-68
2021/12/29 07:34:36;;;;;;;4.67;1.83;;;7.90;99.70;;;;;;4994246;28;20467;-68
2021/12/29 07:37:03;;;;;;;6.03;1.90;;;7.90;99.70;;;;;;4994241;28;20841;-67
2021/12/29 07:39:30;;;;;;;7.60;2.67;;;7.90;99.70;;;;;;4986824;28;20562;-67
2021/12/29 07:41:57;;;;;;;6.03;2.90;;;7.90;99.70;;;;;;4994381;28;20881;-68
2021/12/29 07:44:25;;;;;;;7.63;3.70;;;7.80;99.70;;;;;;4994114;28;20990;-68
2021/12/29 07:46:55;;;;;;;7.40;3.30;;;7.80;99.70;;;;;;4994102;28;20537;-68
2021/12/29 07:49:22;;;;;;;9.53;3.87;;;7.80;99.70;;;;;;4992545;28;20508;-68
2021/12/29 07:51:51;;;;;;;7.47;3.10;;;7.80;99.70;;;;;;4993340;28;20955;-68
2021/12/29 07:54:19;;;;;;;9.00;3.70;;;7.80;99.70;;;;;;4993758;28;20475;-68
2021/12/29 07:56:46;;;;;;;6.23;2.80;;;7.80;99.70;;;;;;4993681;28;20442;-68
2021/12/29 07:59:13;;;;;;;7.60;3.60;;;7.90;99.70;;;;;;4992200;28;20439;-67
2021/12/29 08:01:41;;;;;;;7.33;3.87;;;7.80;99.70;;;;;;4993322;28;20462;-68
2021/12/29 08:04:10;;;;;;;8.03;3.50;;;7.80;99.70;;;;;;4993513;28;20486;-67
2021/12/29 08:06:36;;;;;;;4.40;2.23;;;7.80;99.70;;;;;;4993577;28;20842;-67
2021/12/29 08:09:06;;;;;;;5.10;1.83;;;7.70;99.70;;;;;;4993055;28;20454;-67
2021/12/29 08:11:33;;;;;;;6.23;2.50;;;7.70;99.70;;;;;;4992870;28;20523;-68
2021/12/29 08:14:00;;;;;;;4.30;1.97;;;7.70;99.70;;;;;;4975487;28;20467;-68
2021/12/29 08:16:26;;;;;;;4.47;2.10;;;7.70;99.70;;;;;;4974276;28;20455;-68
2021/12/29 08:18:53;;;;;;;4.60;2.20;;;7.70;99.70;;;;;;4986281;28;20579;-68
2021/12/29 08:21:20;;;;;;;12.07;5.00;;;7.80;99.70;;;;;;4991815;28;20450;-68
2021/12/29 08:23:47;;;;;;;20.20;12.13;;;7.80;99.70;;;;;;4993035;28;20999;-67
2021/12/29 08:26:15;;;;;;;11.33;5.43;;;7.70;99.70;;;;;;4992867;28;20818;-68
2021/12/29 08:28:42;;;;;;;6.47;2.90;;;7.80;99.70;;;;;;4993072;28;20489;-68
2021/12/29 08:31:08;;;;;;;6.70;3.00;;;7.80;99.70;;;;;;4990937;28;21313;-68
2021/12/29 08:33:38;;;;;;;6.17;2.93;;;7.90;99.70;;;;;;4991843;28;20536;-68
2021/12/29 08:36:05;;;;;;;7.53;2.70;;;7.90;99.70;;;;;;4991572;28;20446;-68
2021/12/29 08:38:32;;;;;;;4.73;2.60;;;8.00;99.70;;;;;;4992427;28;20823;-67
2021/12/29 08:40:59;;;;;;;6.60;2.30;;;8.10;99.70;;;;;;4991979;28;20451;-68
2021/12/29 08:43:27;;;;;;;8.10;4.23;;;8.10;99.70;;;;;;4992355;28;21045;-67
2021/12/29 08:45:54;;;;;;;13.13;6.50;;;8.20;99.70;;;;;;4989353;28;20458;-67
2021/12/29 08:48:20;;;;;;;12.40;4.77;;;8.20;99.70;;;;;;4991999;28;20451;-68
2021/12/29 08:50:47;;;;;;;6.27;2.90;;;8.30;99.70;;;;;;4991939;28;20509;-68
2021/12/29 08:53:14;;;;;;;4.10;2.40;;;8.40;99.70;;;;;;4991825;28;20485;-68
2021/12/29 08:55:46;;;;;;;7.83;2.40;;;8.50;99.70;;;;;;4992320;28;20541;-68
2021/12/29 08:58:14;;;;;;;3.73;1.80;;;8.40;99.70;;;;;;4977713;28;20479;-68
2021/12/29 09:00:42;;;;;;;6.30;2.30;;;8.50;99.70;;;;;;4988724;28;20497;-68
2021/12/29 09:03:09;;;;;;;3.60;1.80;;;8.60;99.70;;;;;;4984049;28;20533;-68
2021/12/29 09:05:36;;;;;;;4.83;1.80;;;8.60;99.70;;;;;;4991422;28;20850;-68
2021/12/29 09:08:04;;;;;;;4.20;2.00;;;8.70;99.70;;;;;;4990911;28;20505;-68
2021/12/29 09:10:31;;;;;;;6.23;2.33;;;8.80;99.70;;;;;;4991756;28;20458;-68
2021/12/29 09:12:58;;;;;;;5.20;2.03;;;8.80;99.70;;;;;;4991062;28;20469;-68
2021/12/29 09:15:25;;;;;;;4.17;2.20;;;8.80;99.70;;;;;;4990709;28;20453;-68
2021/12/29 09:17:54;;;;;;;5.53;2.10;;;8.80;99.70;;;;;;4991246;28;20565;-68
2021/12/29 09:20:27;;;;;;;5.37;2.03;;;8.70;99.70;;;;;;4991777;28;20449;-68
2021/12/29 09:22:56;;;;;;;4.40;1.90;;;8.60;99.70;;;;;;4988790;28;21014;-68
2021/12/29 09:25:24;;;;;;;7.63;2.33;;;8.70;99.70;;;;;;4992106;28;20489;-68
2021/12/29 09:27:52;;;;;;;6.90;2.27;;;8.70;99.70;;;;;;4990958;28;20449;-67
2021/12/29 09:30:20;;;;;;;3.93;2.10;;;8.80;99.70;;;;;;4991867;28;20459;-68
2021/12/29 09:32:47;;;;;;;6.00;2.23;;;8.90;99.70;;;;;;4991129;28;20525;-68
2021/12/29 09:35:16;;;;;;;5.60;1.90;;;8.90;99.70;;;;;;4990914;28;20443;-68
2021/12/29 09:37:43;;;;;;;5.33;2.07;;;8.90;99.70;;;;;;4987000;28;20454;-67
2021/12/29 09:40:12;;;;;;;5.40;2.00;;;9.00;99.70;;;;;;4984350;28;20494;-67
2021/12/29 09:42:39;;;;;;;4.63;2.10;;;8.90;99.70;;;;;;4987079;28;20540;-68
2021/12/29 09:45:07;;;;;;;6.70;1.90;;;8.90;99.70;;;;;;4989296;28;20479;-68
2021/12/29 09:47:34;;;;;;;4.77;2.20;;;8.90;99.70;;;;;;4983491;28;20569;-68
2021/12/29 09:50:02;;;;;;;4.23;1.63;;;8.90;99.70;;;;;;4985240;28;20458;-68
2021/12/29 09:52:33;;;;;;;4.90;1.90;;;8.90;99.70;;;;;;4982438;28;20466;-68
2021/12/29 09:55:04;;;;;;;8.20;1.90;;;8.90;99.70;;;;;;4982199;28;20543;-68
2021/12/29 09:57:31;;;;;;;3.77;1.50;;;9.00;99.70;;;;;;4984438;28;20450;-69
2021/12/29 09:59:58;;;;;;;5.07;1.80;;;9.10;99.70;;;;;;4985116;28;20451;-68
2021/12/29 10:02:25;;;;;;;6.40;2.10;;;9.20;99.70;;;;;;4986116;28;20457;-68
2021/12/29 10:04:52;;;;;;;5.27;1.70;;;9.20;99.70;;;;;;4988299;28;21072;-68
2021/12/29 10:07:20;;;;;;;5.90;2.20;;;9.10;99.70;;;;;;4980948;28;20516;-68
2021/12/29 10:09:49;;;;;;;7.37;1.90;;;9.10;99.70;;;;;;4985454;28;20457;-68
2021/12/29 10:12:19;;;;;;;5.37;1.90;;;9.20;99.70;;;;;;4988193;28;20447;-68
2021/12/29 10:14:51;;;;;;;5.60;2.43;;;9.30;99.70;;;;;;4985830;28;20448;-68
2021/12/29 10:17:18;;;;;;;4.17;2.00;;;9.20;99.70;;;;;;4983069;28;20443;-69
2021/12/29 10:19:46;;;;;;;3.83;2.03;;;9.20;99.70;;;;;;4990316;28;20446;-68
2021/12/29 10:22:23;;;;;;;5.80;2.30;;;9.20;99.70;;;;;;4986181;28;20808;-69
2021/12/29 10:25:03;;;;;;;5.37;2.10;;;9.30;99.70;;;;;;4985530;28;20485;-68
2021/12/29 10:27:31;;;;;;;4.93;2.10;;;9.40;99.70;;;;;;4983782;28;20463;-68
2021/12/29 10:29:58;;;;;;;4.73;2.50;;;9.40;99.70;;;;;;4986827;28;20462;-69
2021/12/29 10:32:26;;;;;;;8.30;2.13;;;9.40;99.70;;;;;;4986315;28;20881;-69
2021/12/29 10:34:54;;;;;;;6.30;2.10;;;9.50;99.70;;;;;;4981427;28;20854;-68
2021/12/29 10:37:24;;;;;;;3.93;2.07;;;9.40;99.70;;;;;;4988258;28;20512;-68
2021/12/29 10:39:55;;;;;;;4.70;2.00;;;9.40;99.70;;;;;;4981601;28;20472;-68
2021/12/29 10:42:25;;;;;;;5.17;1.97;;;9.60;99.70;;;;;;4987277;28;20464;-69
2021/12/29 10:44:55;;;;;;;5.50;2.10;;;9.60;99.70;;;;;;4985286;28;21018;-68
2021/12/29 10:47:24;;;;;;;6.30;2.00;;;9.60;99.70;;;;;;4982520;28;20486;-68
2021/12/29 10:49:53;;;;;;;8.10;2.20;;;9.60;99.70;;;;;;4982889;28;20920;-68
2021/12/29 10:52:30;;;;;;;6.03;2.20;;;9.60;99.70;;;;;;4985367;28;20448;-68
2021/12/29 10:54:58;;;;;;;5.57;2.10;;;9.70;99.70;;;;;;4984527;28;20473;-69
2021/12/29 10:57:25;;;;;;;3.87;1.80;;;9.80;99.70;;;;;;4986355;28;20455;-68
2021/12/29 10:59:55;;;;;;;4.67;1.90;;;9.80;99.70;;;;;;4989433;28;20549;-68
2021/12/29 11:02:27;;;;;;;6.33;2.00;;;9.70;99.70;;;;;;4989943;28;20454;-68
2021/12/29 11:04:56;;;;;;;32.00;3.67;;;9.90;99.70;;;;;;4984397;28;20525;-68
2021/12/29 11:07:26;;;;;;;97.07;6.90;;;9.70;99.70;;;;;;4987004;28;20491;-69
2021/12/29 11:09:53;;;;;;;252.63;16.50;;;9.80;99.70;;;;;;4984293;28;20455;-69
2021/12/29 11:12:23;;;;;;;8.73;2.20;;;9.70;99.70;;;;;;4988641;28;20537;-69
2021/12/29 11:14:53;;;;;;;15.37;2.43;;;9.70;99.70;;;;;;4991696;28;20446;-68
2021/12/29 11:17:24;;;;;;;46.20;4.63;;;9.80;99.70;;;;;;4993403;28;20508;-68
2021/12/29 11:19:54;;;;;;;12.73;2.23;;;9.80;99.70;;;;;;4982803;28;20524;-68
2021/12/29 11:22:24;;;;;;;21.10;2.80;;;9.90;99.70;;;;;;4992023;28;20442;-68
2021/12/29 11:24:56;;;;;;;5.93;1.63;;;9.80;99.70;;;;;;4993080;28;20478;-68
2021/12/29 11:27:26;;;;;;;15.27;2.40;;;9.90;99.70;;;;;;4993544;28;20457;-69
2021/12/29 11:29:56;;;;;;;20.40;2.40;;;9.80;99.70;;;;;;4993110;28;20482;-68
2021/12/29 11:32:27;;;;;;;8.33;2.00;;;9.90;99.70;;;;;;4992615;28;20785;-68
2021/12/29 11:35:03;;;;;;;10.93;2.30;;;9.80;99.70;;;;;;4980305;28;20828;-69
2021/12/29 11:37:30;;;;;;;17.93;2.70;;;9.80;99.70;;;;;;4986581;28;20466;-69
2021/12/29 11:39:57;;;;;;;7.47;1.97;;;9.70;99.70;;;;;;4988797;28;20466;-68
2021/12/29 11:42:25;;;;;;;21.13;3.13;;;9.80;99.70;;;;;;4990555;28;20462;-68
2021/12/29 11:44:52;;;;;;;21.90;2.90;;;9.80;99.70;;;;;;4987643;28;20557;-68
2021/12/29 11:47:19;;;;;;;7.47;2.37;;;9.80;99.70;;;;;;4990536;28;20459;-68
2021/12/29 11:49:46;;;;;;;10.40;2.10;;;9.90;99.70;;;;;;4992864;28;20978;-68
2021/12/29 11:52:26;;;;;;;8.57;2.23;;;9.90;99.70;;;;;;4993305;28;20816;-68
2021/12/29 11:55:03;;;;;;;9.70;2.40;;;9.90;99.70;;;;;;4993612;28;20446;-69
2021/12/29 11:57:34;;;;;;;9.20;2.30;;;9.80;99.70;;;;;;4988707;28;20536;-69
2021/12/29 12:00:09;;;;;;;15.80;2.53;;;9.80;99.70;;;;;;4987770;28;20459;-68
2021/12/29 12:02:36;;;;;;;6.73;1.97;;;9.80;99.70;;;;;;4990201;28;20468;-68
2021/12/29 12:05:05;;;;;;;5.27;1.93;;;9.70;99.70;;;;;;4992912;28;20991;-69
2021/12/29 12:07:32;;;;;;;8.33;2.00;;;9.70;99.70;;;;;;4989643;28;20474;-68
2021/12/29 12:10:03;;;;;;;7.50;2.30;;;9.70;99.70;;;;;;4990165;28;20483;-68
2021/12/29 12:12:36;;;;;;;9.70;2.60;;;9.70;99.70;;;;;;4986909;28;20470;-69
2021/12/29 12:15:07;;;;;;;10.23;3.40;;;9.70;99.70;;;;;;4990056;28;20462;-67
2021/12/29 12:17:34;;;;;;;9.10;2.50;;;9.80;99.70;;;;;;4986516;28;20560;-69
2021/12/29 12:20:04;;;;;;;6.53;2.20;;;9.90;99.70;;;;;;4987684;28;20454;-68
2021/12/29 12:22:42;;;;;;;8.50;2.40;;;10.00;99.70;;;;;;4987590;28;20822;-68
2021/12/29 12:25:09;;;;;;;7.10;2.33;;;10.10;99.70;;;;;;4989271;28;20485;-69
2021/12/29 12:27:42;;;;;;;11.53;2.60;;;10.10;99.70;;;;;;4990950;28;20465;-69
2021/12/29 12:30:11;;;;;;;7.63;2.20;;;10.20;99.70;;;;;;4992559;28;20442;-69
2021/12/29 12:32:47;;;;;;;5.67;2.20;;;10.10;99.70;;;;;;4991776;28;20892;-68
2021/12/29 12:35:15;;;;;;;8.77;2.23;;;9.90;99.70;;;;;;4990714;28;20438;-68
2021/12/29 12:37:45;;;;;;;5.73;2.23;;;9.90;99.70;;;;;;4990949;28;20454;-68
2021/12/29 12:40:21;;;;;;;8.60;3.33;;;9.90;99.70;;;;;;4992683;28;20455;-68
2021/12/29 12:42:59;;;;;;;9.50;2.40;;;10.00;99.70;;;;;;4992325;28;20699;-68
2021/12/29 12:45:31;;;;;;;4.30;2.30;;;9.90;99.70;;;;;;4992527;28;20482;-68
2021/12/29 12:48:07;;;;;;;6.73;2.10;;;10.00;99.70;;;;;;4990544;28;20464;-68
2021/12/29 12:50:33;;;;;;;11.00;2.70;;;10.10;99.70;;;;;;4991719;28;20486;-69
2021/12/29 12:53:00;;;;;;;6.87;2.60;;;10.10;99.70;;;;;;4990772;28;20485;-68
2021/12/29 12:55:41;;;;;;;9.30;2.43;;;10.10;99.70;;;;;;4990393;28;20541;-69
2021/12/29 12:58:12;;;;;;;5.63;2.20;;;10.00;99.70;;;;;;4988570;28;20458;-68
2021/12/29 13:00:44;;;;;;;6.07;2.10;;;10.00;99.70;;;;;;4989014;28;20463;-69
2021/12/29 13:03:14;;;;;;;11.73;3.80;;;10.00;99.70;;;;;;4987385;28;20494;-69
2021/12/29 13:05:44;;;;;;;5.87;2.37;;;10.00;99.70;;;;;;4988724;28;20493;-69
2021/12/29 13:08:13;;;;;;;6.53;2.30;;;10.10;99.70;;;;;;4982350;28;20454;-68
2021/12/29 13:10:45;;;;;;;6.40;2.40;;;10.00;99.70;;;;;;4978737;28;20534;-68
2021/12/29 13:13:18;;;;;;;5.33;2.10;;;10.00;99.70;;;;;;4987763;28;20501;-68
2021/12/29 13:15:47;;;;;;;7.50;2.40;;;10.00;99.70;;;;;;4986286;28;20473;-68
2021/12/29 13:18:15;;;;;;;6.20;2.07;;;9.90;99.70;;;;;;4984560;28;20460;-68
2021/12/29 13:20:46;;;;;;;7.13;2.97;;;10.00;99.70;;;;;;4985535;28;20446;-69
2021/12/29 13:23:17;;;;;;;4.80;2.03;;;10.00;99.70;;;;;;4990143;28;20549;-69
2021/12/29 13:25:48;;;;;;;6.60;2.40;;;9.90;99.70;;;;;;4988130;28;20483;-69
2021/12/29 13:28:18;;;;;;;4.77;1.90;;;9.90;99.70;;;;;;4988889;28;20477;-69
2021/12/29 13:30:49;;;;;;;5.57;2.37;;;10.00;99.70;;;;;;4985434;28;20834;-68
2021/12/29 13:33:21;;;;;;;5.57;2.27;;;9.90;99.70;;;;;;4986390;28;20974;-67
2021/12/29 13:35:49;;;;;;;6.83;2.30;;;9.90;99.70;;;;;;4984971;28;20443;-66
2021/12/29 13:38:18;;;;;;;6.00;2.10;;;9.90;99.70;;;;;;4986589;28;20837;-67
2021/12/29 13:40:47;;;;;;;4.90;2.00;;;9.80;99.70;;;;;;4990560;28;20494;-67
2021/12/29 13:43:18;;;;;;;3.40;1.90;;;9.90;99.70;;;;;;4988174;28;20515;-66
2021/12/29 13:45:47;;;;;;;4.83;2.20;;;9.80;99.70;;;;;;4987668;28;20901;-67
2021/12/29 13:48:17;;;;;;;6.17;2.40;;;9.80;99.70;;;;;;4987617;28;20447;-64
2021/12/29 13:51:00;;;;;;;5.63;2.20;;;9.80;99.70;;;;;;4986362;28;20454;-67
2021/12/29 13:53:27;;;;;;;6.03;2.30;;;9.80;99.70;;;;;;4988486;28;20477;-67
2021/12/29 13:55:56;;;;;;;4.50;1.97;;;9.80;99.70;;;;;;4988494;28;20807;-67
2021/12/29 13:58:25;;;;;;;7.40;1.90;;;9.80;99.70;;;;;;4987835;28;20544;-67
2021/12/29 14:00:52;;;;;;;3.60;1.90;;;9.80;99.70;;;;;;4982624;28;20661;-67
2021/12/29 14:03:19;;;;;;;4.37;1.67;;;9.70;99.70;;;;;;4989550;28;20976;-67
2021/12/29 14:05:47;;;;;;;6.53;1.90;;;9.70;99.70;;;;;;4982690;28;20490;-67
2021/12/29 14:08:18;;;;;;;4.73;2.17;;;9.70;99.70;;;;;;4990655;28;20454;-67
2021/12/29 14:10:46;;;;;;;3.90;1.83;;;9.70;99.70;;;;;;4989856;28;20447;-67
2021/12/29 14:13:16;;;;;;;5.23;2.07;;;9.70;99.70;;;;;;4985989;28;20855;-67
2021/12/29 14:15:47;;;;;;;5.30;1.90;;;9.70;99.70;;;;;;4986112;28;20940;-67
2021/12/29 14:18:20;;;;;;;4.47;2.10;;;9.70;99.70;;;;;;4986278;28;20980;-66
2021/12/29 14:20:47;;;;;;;5.67;2.20;;;9.60;99.70;;;;;;4990031;28;20454;-66
2021/12/29 14:23:14;;;;;;;6.20;2.10;;;9.60;99.70;;;;;;4982898;28;20474;-67
2021/12/29 14:25:43;;;;;;;5.10;2.13;;;9.60;99.70;;;;;;4990633;28;20478;-68
2021/12/29 14:28:17;;;;;;;5.17;2.33;;;9.60;99.70;;;;;;4985196;28;20469;-67
2021/12/29 14:30:56;;;;;;;10.60;2.67;;;9.60;99.70;;;;;;4987166;28;20443;-67
2021/12/29 14:33:26;;;;;;;6.27;2.80;;;9.70;99.70;;;;;;4987877;28;20508;-68
2021/12/29 14:35:53;;;;;;;5.10;2.23;;;9.60;99.70;;;;;;4990940;28;20493;-67
2021/12/29 14:38:20;;;;;;;5.33;1.97;;;9.60;99.70;;;;;;4988579;28;20447;-67
2021/12/29 14:40:47;;;;;;;5.87;2.03;;;9.50;99.70;;;;;;4980076;28;20820;-67
2021/12/29 14:43:16;;;;;;;4.37;2.40;;;9.50;99.70;;;;;;4990485;28;20463;-67
2021/12/29 14:45:51;;;;;;;6.30;2.40;;;9.50;99.70;;;;;;4986555;28;20489;-68
2021/12/29 14:48:18;;;;;;;7.53;2.80;;;9.50;99.70;;;;;;4987185;28;20890;-67
2021/12/29 14:50:48;;;;;;;7.90;2.57;;;9.50;99.70;;;;;;5003412;28;20453;-67
2021/12/29 14:53:15;;;;;;;6.03;2.77;;;9.40;99.70;;;;;;5000756;28;20614;-68
2021/12/29 14:55:43;;;;;;;5.97;2.40;;;9.40;99.70;;;;;;4993153;28;20461;-67
2021/12/29 14:58:24;;;;;;;6.83;2.40;;;9.50;99.70;;;;;;4992306;28;20890;-66
2021/12/29 15:01:01;;;;;;;4.90;1.93;;;9.40;99.70;;;;;;4998722;28;20534;-67
2021/12/29 15:03:28;;;;;;;3.43;1.67;;;9.40;99.70;;;;;;5001533;28;20516;-67
2021/12/29 15:05:54;;;;;;;7.03;2.67;;;9.40;99.70;;;;;;4992018;28;20951;-66
2021/12/29 15:08:24;;;;;;;7.30;3.20;;;9.30;99.70;;;;;;4988601;28;20970;-68
2021/12/29 15:10:55;;;;;;;6.97;2.67;;;9.20;99.70;;;;;;4992770;28;20501;-66
2021/12/29 15:13:26;;;;;;;9.53;3.47;;;9.20;99.70;;;;;;4994272;28;20474;-66
2021/12/29 15:16:00;;;;;;;7.20;2.50;;;9.20;99.70;;;;;;4992605;28;20450;-66
2021/12/29 15:18:29;;;;;;;7.23;2.57;;;9.20;99.70;;;;;;4993760;28;20454;-65
2021/12/29 15:20:59;;;;;;;6.70;2.93;;;9.10;99.70;;;;;;4991395;28;20454;-65
2021/12/29 15:23:27;;;;;;;8.50;2.50;;;9.10;99.70;;;;;;4993325;28;20470;-66
2021/12/29 15:25:54;;;;;;;10.43;3.10;;;9.20;99.70;;;;;;4992409;28;20544;-66
2021/12/29 15:28:22;;;;;;;8.37;2.50;;;9.20;99.70;;;;;;4996077;28;20450;-66
2021/12/29 15:30:51;;;;;;;7.23;2.47;;;9.20;99.70;;;;;;4990451;28;20975;-66
2021/12/29 15:33:20;;;;;;;10.50;2.67;;;9.10;99.70;;;;;;4992165;28;20488;-66
2021/12/29 15:35:48;;;;;;;6.27;2.67;;;9.20;99.70;;;;;;4993326;28;20962;-66
2021/12/29 15:38:15;;;;;;;9.57;2.93;;;9.00;99.70;;;;;;4993249;28;20969;-66
2021/12/29 15:40:44;;;;;;;5.10;2.50;;;9.00;99.70;;;;;;4997349;28;20966;-67
2021/12/29 15:43:11;;;;;;;7.10;2.70;;;9.00;99.70;;;;;;4993117;28;20463;-67
2021/12/29 15:45:38;;;;;;;11.77;2.43;;;9.00;99.70;;;;;;4993377;28;20442;-66
2021/12/29 15:48:05;;;;;;;5.07;2.53;;;9.00;99.70;;;;;;4987850;28;20457;-67
2021/12/29 15:50:36;;;;;;;4.50;2.20;;;9.00;99.70;;;;;;4986869;28;20990;-66
2021/12/29 15:53:04;;;;;;;5.80;2.70;;;9.00;99.70;;;;;;4997781;28;20478;-67
2021/12/29 15:55:31;;;;;;;5.57;2.67;;;9.00;99.70;;;;;;4995281;28;20994;-66
2021/12/29 15:57:58;;;;;;;3.90;2.70;;;9.00;99.70;;;;;;4993653;28;20829;-66
2021/12/29 16:00:28;;;;;;;4.40;2.37;;;9.00;99.70;;;;;;4994081;28;20458;-67
2021/12/29 16:02:55;;;;;;;7.37;2.30;;;9.00;99.70;;;;;;4991759;28;20482;-66
2021/12/29 16:05:23;;;;;;;8.87;3.10;;;9.00;99.70;;;;;;4998081;28;20822;-67
2021/12/29 16:07:51;;;;;;;5.80;2.80;;;9.00;99.70;;;;;;4992034;28;20489;-67
2021/12/29 16:10:19;;;;;;;7.27;3.20;;;9.00;99.70;;;;;;4989404;28;21071;-66
2021/12/29 16:12:47;;;;;;;5.80;2.70;;;8.90;99.70;;;;;;4988687;28;20478;-67
2021/12/29 16:15:15;;;;;;;8.20;2.97;;;8.90;99.70;;;;;;5002000;28;20873;-66
2021/12/29 16:17:42;;;;;;;7.43;2.50;;;8.80;99.70;;;;;;4986252;28;21198;-66
2021/12/29 16:20:12;;;;;;;6.27;2.63;;;8.90;99.70;;;;;;4991858;28;20454;-66
2021/12/29 16:22:39;;;;;;;6.40;2.73;;;8.90;99.70;;;;;;4986801;28;20462;-65
2021/12/29 16:25:09;;;;;;;5.37;2.67;;;8.90;99.70;;;;;;4992334;28;20520;-66
2021/12/29 16:27:36;;;;;;;7.77;3.27;;;8.80;99.70;;;;;;4991676;28;20489;-66
2021/12/29 16:30:06;;;;;;;6.97;3.23;;;8.80;99.70;;;;;;4990238;28;20454;-65
2021/12/29 16:32:33;;;;;;;8.57;3.40;;;8.80;99.70;;;;;;4995430;28;20501;-65
2021/12/29 16:35:00;;;;;;;8.17;3.80;;;8.80;99.70;;;;;;5001882;28;20499;-65
2021/12/29 16:37:27;;;;;;;10.30;4.10;;;8.80;99.70;;;;;;4992733;28;20459;-66
2021/12/29 16:39:55;;;;;;;7.90;4.10;;;8.80;99.70;;;;;;4994515;28;21021;-66
2021/12/29 16:42:23;;;;;;;11.23;4.30;;;8.80;99.70;;;;;;4991126;28;20450;-67
2021/12/29 16:44:50;;;;;;;14.27;5.90;;;8.80;99.70;;;;;;4986861;28;21000;-66
2021/12/29 16:47:17;;;;;;;13.80;5.53;;;8.70;99.70;;;;;;4997668;28;20488;-66
2021/12/29 16:49:43;;;;;;;12.80;5.50;;;8.70;99.70;;;;;;4989914;28;20454;-67
2021/12/29 16:52:10;;;;;;;13.17;5.40;;;8.70;99.70;;;;;;4991578;28;20446;-68
2021/12/29 16:54:38;;;;;;;11.20;5.40;;;8.70;99.70;;;;;;4991476;28;20466;-66
2021/12/29 16:57:06;;;;;;;9.47;5.07;;;8.70;99.70;;;;;;4987945;28;20534;-66
2021/12/29 16:59:35;;;;;;;9.60;5.13;;;8.70;99.70;;;;;;4989179;28;20539;-67
2021/12/29 17:02:02;;;;;;;10.40;5.17;;;8.80;99.70;;;;;;4996498;28;20473;-66
2021/12/29 17:04:29;;;;;;;10.93;4.93;;;8.80;99.70;;;;;;4991255;28;20497;-66
2021/12/29 17:06:57;;;;;;;11.97;5.40;;;8.80;99.70;;;;;;4983682;28;20475;-67
2021/12/29 17:09:24;;;;;;;13.30;5.90;;;8.90;99.70;;;;;;4990450;28;20470;-66
2021/12/29 17:11:52;;;;;;;12.77;5.93;;;8.80;99.70;;;;;;4988929;28;20580;-66
2021/12/29 17:14:18;;;;;;;13.83;6.43;;;8.80;99.70;;;;;;4992712;28;20492;-66
2021/12/29 17:16:47;;;;;;;13.70;6.27;;;8.80;99.70;;;;;;4990458;28;20461;-66
2021/12/29 17:19:16;;;;;;;14.73;6.60;;;8.80;99.70;;;;;;4989606;28;20541;-67
2021/12/29 17:21:45;;;;;;;10.23;5.60;;;8.80;99.70;;;;;;4997371;28;20451;-66
2021/12/29 17:24:12;;;;;;;14.30;6.47;;;8.70;99.70;;;;;;4986992;28;20470;-66
2021/12/29 17:26:39;;;;;;;18.67;9.50;;;8.70;99.70;;;;;;4992612;28;20489;-66
2021/12/29 17:29:08;;;;;;;19.63;10.13;;;8.70;99.70;;;;;;4990357;28;20451;-68
2021/12/29 17:31:35;;;;;;;18.30;10.00;;;8.70;99.70;;;;;;4991311;28;20486;-67
2021/12/29 17:34:03;;;;;;;20.57;11.70;;;8.70;99.70;;;;;;4991186;28;20470;-67
2021/12/29 17:36:30;;;;;;;14.53;7.20;;;8.70;99.70;;;;;;4991189;28;20450;-67
2021/12/29 17:38:57;;;;;;;13.70;6.70;;;8.70;99.70;;;;;;4993924;28;20476;-66
2021/12/29 17:41:24;;;;;;;21.33;8.37;;;8.70;99.70;;;;;;4986511;28;20475;-66
2021/12/29 17:43:52;;;;;;;19.83;8.00;;;8.70;99.70;;;;;;4991183;28;20497;-66
2021/12/29 17:46:20;;;;;;;29.83;11.43;;;8.80;99.70;;;;;;4988273;28;20454;-68
2021/12/29 17:48:47;;;;;;;23.33;9.20;;;8.80;99.70;;;;;;4980212;28;20503;-66
2021/12/29 17:51:16;;;;;;;18.60;8.60;;;8.70;99.70;;;;;;4988829;28;20495;-66
2021/12/29 17:53:44;;;;;;;18.53;8.30;;;8.70;99.70;;;;;;4990621;28;20482;-66
2021/12/29 17:56:12;;;;;;;14.10;7.63;;;8.60;99.70;;;;;;4988957;28;20450;-66
2021/12/29 17:58:38;;;;;;;16.10;6.63;;;8.60;99.70;;;;;;4990813;28;21010;-67
2021/12/29 18:01:05;;;;;;;17.90;7.93;;;8.70;99.70;;;;;;4990131;28;20458;-66
2021/12/29 18:03:32;;;;;;;14.50;7.20;;;8.70;99.70;;;;;;4991305;28;20470;-66
2021/12/29 18:05:59;;;;;;;13.20;7.17;;;8.70;99.70;;;;;;4990736;28;20465;-66